This is the latest recevied weather packets stored in our database for station/object DB0NU-15. If no packets are shown the sender has not sent any weather packets the latest 10 day(s).
| Time | Temp. | Humidity | Pressure | Rain* | Wind** | Luminosity | Snow |
|---|---|---|---|---|---|---|---|
| 1777684229 | 12.22° C | 56% | 1025.4 hPa | 0 mm | - | - | - |
| 1777683626 | 12.22° C | 56% | 1025.4 hPa | 0 mm | - | - | - |
| 1777683022 | 12.78° C | 54% | 1025.5 hPa | 0 mm | - | - | - |
| 1777681815 | 12.22° C | 55% | 1025.5 hPa | 0 mm | - | - | - |
| 1777681272 | 12.22° C | 55% | 1025.5 hPa | 0 mm | - | - | - |
| 1777680669 | 13.33° C | 52% | 1025.7 hPa | 0 mm | - | - | - |
| 1777679462 | 13.33° C | 51% | 1025.7 hPa | 0 mm | - | - | - |
| 1777678859 | 13.33° C | 50% | 1025.8 hPa | 0 mm | - | - | - |
| 1777677652 | 12.78° C | 53% | 1025.8 hPa | 0 mm | - | - | - |
| 1777677049 | 12.78° C | 53% | 1025.9 hPa | 0 mm | - | - | - |
| 1777676445 | 13.33° C | 52% | 1025.9 hPa | 0 mm | - | - | - |
| 1777675842 | 13.89° C | 51% | 1025.9 hPa | 0 mm | - | - | - |
| 1777675238 | 13.89° C | 50% | 1026 hPa | 0 mm | - | - | - |
| 1777674635 | 13.33° C | 51% | 1026.2 hPa | 0 mm | - | - | - |
| 1777674032 | 14.44° C | 48% | 1026.1 hPa | 0 mm | - | - | - |
| 1777672825 | 14.44° C | 47% | 1026 hPa | 0 mm | - | - | - |
| 1777672221 | 15° C | 48% | 1025.9 hPa | 0 mm | - | - | - |
| 1777671075 | 15.56° C | 44% | 1025.9 hPa | 0 mm | - | - | - |
| 1777670471 | 16.11° C | 43% | 1025.9 hPa | 0 mm | - | - | - |
| 1777669264 | 16.11° C | 44% | 1026 hPa | 0 mm | - | - | - |
| 1777668057 | 16.11° C | 45% | 1026 hPa | 0 mm | - | - | - |
| 1777667454 | 16.11° C | 45% | 1026 hPa | 0 mm | - | - | - |
| 1777666851 | 16.67° C | 43% | 1026 hPa | 0 mm | - | - | - |
| 1777665644 | 16.67° C | 43% | 1026.1 hPa | 0 mm | - | - | - |
| 1777664437 | 16.67° C | 43% | 1026 hPa | 0 mm | - | - | - |
* Rain latest hour (hover to see other rain measurements)
** Current wind speed in m/s (hover to see current wind gust speed)